sensor_id;sensor_type;location;lat;lon;timestamp;P1;durP1;ratioP1;P2;durP2;ratioP2
44446;SDS011;30152;52.066;5.358;2023-05-02T06:01:49;13.23;;;3.28;;
44446;SDS011;30152;52.066;5.358;2023-05-02T06:04:15;15.23;;;2.95;;
44446;SDS011;30152;52.066;5.358;2023-05-02T06:06:41;17.27;;;3.58;;
44446;SDS011;30152;52.066;5.358;2023-05-02T06:09:06;12.60;;;2.90;;
44446;SDS011;30152;52.066;5.358;2023-05-02T06:11:32;9.63;;;2.33;;
44446;SDS011;30152;52.066;5.358;2023-05-02T06:14:00;13.95;;;2.60;;
44446;SDS011;30152;52.066;5.358;2023-05-02T06:16:26;16.15;;;3.13;;
44446;SDS011;30152;52.066;5.358;2023-05-02T06:18:51;14.25;;;2.65;;
44446;SDS011;30152;52.066;5.358;2023-05-02T06:21:17;14.32;;;3.28;;
44446;SDS011;30152;52.066;5.358;2023-05-02T06:23:43;18.98;;;2.65;;
44446;SDS011;30152;52.066;5.358;2023-05-02T06:26:09;8.55;;;2.17;;
44446;SDS011;30152;52.066;5.358;2023-05-02T06:28:35;8.77;;;2.58;;
44446;SDS011;30152;52.066;5.358;2023-05-02T06:31:02;9.60;;;2.13;;
44446;SDS011;30152;52.066;5.358;2023-05-02T06:33:29;11.48;;;2.00;;
44446;SDS011;30152;52.066;5.358;2023-05-02T06:35:55;12.90;;;2.40;;
44446;SDS011;30152;52.066;5.358;2023-05-02T06:38:21;11.40;;;1.85;;
44446;SDS011;30152;52.066;5.358;2023-05-02T06:40:47;19.50;;;2.50;;
44446;SDS011;30152;52.066;5.358;2023-05-02T06:43:13;11.55;;;2.33;;
44446;SDS011;30152;52.066;5.358;2023-05-02T06:45:40;13.30;;;2.28;;
44446;SDS011;30152;52.066;5.358;2023-05-02T06:48:06;13.02;;;2.03;;
44446;SDS011;30152;52.066;5.358;2023-05-02T06:50:32;13.52;;;2.83;;
44446;SDS011;30152;52.066;5.358;2023-05-02T06:52:57;12.90;;;2.47;;
44446;SDS011;30152;52.066;5.358;2023-05-02T06:55:23;15.70;;;2.30;;
44446;SDS011;30152;52.066;5.358;2023-05-02T06:57:49;8.55;;;2.05;;
44446;SDS011;30152;52.066;5.358;2023-05-02T07:00:15;11.63;;;1.70;;
44446;SDS011;30152;52.066;5.358;2023-05-02T07:02:41;14.77;;;2.22;;
44446;SDS011;30152;52.066;5.358;2023-05-02T07:05:08;11.88;;;1.80;;
44446;SDS011;30152;52.066;5.358;2023-05-02T07:07:34;9.77;;;1.95;;
44446;SDS011;30152;52.066;5.358;2023-05-02T07:10:00;9.75;;;2.00;;
44446;SDS011;30152;52.066;5.358;2023-05-02T07:12:25;15.13;;;2.78;;
44446;SDS011;30152;52.066;5.358;2023-05-02T07:14:51;9.18;;;2.28;;
44446;SDS011;30152;52.066;5.358;2023-05-02T07:17:17;17.13;;;2.33;;
44446;SDS011;30152;52.066;5.358;2023-05-02T07:19:42;14.82;;;2.25;;
44446;SDS011;30152;52.066;5.358;2023-05-02T07:22:08;13.35;;;2.50;;
44446;SDS011;30152;52.066;5.358;2023-05-02T07:24:33;10.35;;;2.00;;
44446;SDS011;30152;52.066;5.358;2023-05-02T07:26:59;19.77;;;2.60;;
44446;SDS011;30152;52.066;5.358;2023-05-02T07:29:25;10.13;;;2.50;;
44446;SDS011;30152;52.066;5.358;2023-05-02T07:31:51;9.90;;;2.33;;
44446;SDS011;30152;52.066;5.358;2023-05-02T07:34:16;12.23;;;2.25;;
44446;SDS011;30152;52.066;5.358;2023-05-02T07:36:42;17.58;;;2.50;;
44446;SDS011;30152;52.066;5.358;2023-05-02T07:39:08;14.98;;;2.30;;
44446;SDS011;30152;52.066;5.358;2023-05-02T07:41:34;17.23;;;3.13;;
44446;SDS011;30152;52.066;5.358;2023-05-02T07:43:59;21.30;;;3.08;;
44446;SDS011;30152;52.066;5.358;2023-05-02T07:46:25;14.98;;;2.75;;
44446;SDS011;30152;52.066;5.358;2023-05-02T07:48:51;12.63;;;2.80;;
44446;SDS011;30152;52.066;5.358;2023-05-02T07:51:18;10.23;;;2.08;;
44446;SDS011;30152;52.066;5.358;2023-05-02T07:53:45;12.23;;;2.38;;
44446;SDS011;30152;52.066;5.358;2023-05-02T07:56:11;8.48;;;2.03;;
44446;SDS011;30152;52.066;5.358;2023-05-02T07:58:37;12.65;;;2.50;;
44446;SDS011;30152;52.066;5.358;2023-05-02T08:01:03;11.15;;;2.58;;
44446;SDS011;30152;52.066;5.358;2023-05-02T08:03:29;11.57;;;2.22;;
44446;SDS011;30152;52.066;5.358;2023-05-02T08:05:55;12.77;;;2.13;;
44446;SDS011;30152;52.066;5.358;2023-05-02T08:08:21;12.73;;;2.50;;
44446;SDS011;30152;52.066;5.358;2023-05-02T08:10:47;10.45;;;2.53;;
44446;SDS011;30152;52.066;5.358;2023-05-02T08:13:15;11.30;;;1.88;;
44446;SDS011;30152;52.066;5.358;2023-05-02T08:15:41;11.82;;;1.98;;
44446;SDS011;30152;52.066;5.358;2023-05-02T08:18:06;7.63;;;1.98;;
44446;SDS011;30152;52.066;5.358;2023-05-02T08:20:32;8.18;;;1.85;;
44446;SDS011;30152;52.066;5.358;2023-05-02T08:22:57;9.10;;;2.08;;
44446;SDS011;30152;52.066;5.358;2023-05-02T08:25:23;10.45;;;2.35;;
44446;SDS011;30152;52.066;5.358;2023-05-02T08:27:48;15.43;;;2.60;;
44446;SDS011;30152;52.066;5.358;2023-05-02T08:30:14;9.68;;;2.25;;
44446;SDS011;30152;52.066;5.358;2023-05-02T08:32:40;11.80;;;2.40;;
44446;SDS011;30152;52.066;5.358;2023-05-02T08:35:05;14.95;;;2.47;;
44446;SDS011;30152;52.066;5.358;2023-05-02T08:37:31;8.50;;;2.45;;
44446;SDS011;30152;52.066;5.358;2023-05-02T08:39:57;13.05;;;2.13;;
44446;SDS011;30152;52.066;5.358;2023-05-02T08:42:22;8.27;;;2.42;;
44446;SDS011;30152;52.066;5.358;2023-05-02T08:44:48;12.77;;;2.10;;
44446;SDS011;30152;52.066;5.358;2023-05-02T08:47:14;10.13;;;2.00;;
44446;SDS011;30152;52.066;5.358;2023-05-02T08:49:41;9.60;;;1.92;;
44446;SDS011;30152;52.066;5.358;2023-05-02T08:52:07;10.30;;;2.33;;
44446;SDS011;30152;52.066;5.358;2023-05-02T08:54:36;13.05;;;2.00;;
44446;SDS011;30152;52.066;5.358;2023-05-02T08:57:02;9.38;;;1.60;;
44446;SDS011;30152;52.066;5.358;2023-05-02T08:59:29;10.00;;;1.67;;
44446;SDS011;30152;52.066;5.358;2023-05-02T09:01:58;7.25;;;1.70;;
44446;SDS011;30152;52.066;5.358;2023-05-02T09:04:29;9.40;;;1.77;;
44446;SDS011;30152;52.066;5.358;2023-05-02T09:06:58;10.13;;;1.50;;
44446;SDS011;30152;52.066;5.358;2023-05-02T09:09:25;10.88;;;1.42;;
44446;SDS011;30152;52.066;5.358;2023-05-02T09:11:51;10.90;;;1.40;;
44446;SDS011;30152;52.066;5.358;2023-05-02T09:14:17;9.50;;;2.35;;
44446;SDS011;30152;52.066;5.358;2023-05-02T09:16:43;7.32;;;3.45;;
44446;SDS011;30152;52.066;5.358;2023-05-02T09:19:08;6.95;;;1.55;;
44446;SDS011;30152;52.066;5.358;2023-05-02T09:21:35;7.75;;;1.38;;
44446;SDS011;30152;52.066;5.358;2023-05-02T09:24:13;8.98;;;1.67;;
44446;SDS011;30152;52.066;5.358;2023-05-02T09:26:55;5.57;;;1.23;;
44446;SDS011;30152;52.066;5.358;2023-05-02T09:29:26;5.30;;;1.17;;
44446;SDS011;30152;52.066;5.358;2023-05-02T09:31:54;6.80;;;1.58;;
44446;SDS011;30152;52.066;5.358;2023-05-02T09:34:20;7.50;;;1.40;;
44446;SDS011;30152;52.066;5.358;2023-05-02T09:36:49;9.27;;;2.17;;
44446;SDS011;30152;52.066;5.358;2023-05-02T09:39:19;14.90;;;3.08;;
44446;SDS011;30152;52.066;5.358;2023-05-02T09:41:55;10.35;;;1.85;;
44446;SDS011;30152;52.066;5.358;2023-05-02T09:44:25;5.85;;;1.08;;
44446;SDS011;30152;52.066;5.358;2023-05-02T09:46:59;4.07;;;1.05;;
44446;SDS011;30152;52.066;5.358;2023-05-02T09:52:10;6.20;;;1.55;;
44446;SDS011;30152;52.066;5.358;2023-05-02T09:54:39;5.78;;;1.50;;
44446;SDS011;30152;52.066;5.358;2023-05-02T09:57:05;5.53;;;1.30;;
44446;SDS011;30152;52.066;5.358;2023-05-02T09:59:31;7.15;;;1.90;;
44446;SDS011;30152;52.066;5.358;2023-05-02T10:02:03;9.07;;;1.70;;
44446;SDS011;30152;52.066;5.358;2023-05-02T10:06:57;11.32;;;2.10;;
44446;SDS011;30152;52.066;5.358;2023-05-02T10:09:24;14.23;;;1.92;;
44446;SDS011;30152;52.066;5.358;2023-05-02T10:11:52;6.65;;;1.58;;
44446;SDS011;30152;52.066;5.358;2023-05-02T10:14:18;5.82;;;1.52;;
44446;SDS011;30152;52.066;5.358;2023-05-02T10:16:59;6.65;;;1.30;;
44446;SDS011;30152;52.066;5.358;2023-05-02T10:22:06;9.60;;;1.98;;
44446;SDS011;30152;52.066;5.358;2023-05-02T10:24:33;7.15;;;1.65;;
44446;SDS011;30152;52.066;5.358;2023-05-02T10:26:59;6.32;;;1.63;;
44446;SDS011;30152;52.066;5.358;2023-05-02T10:29:29;10.48;;;1.80;;
44446;SDS011;30152;52.066;5.358;2023-05-02T10:31:56;9.70;;;1.98;;
44446;SDS011;30152;52.066;5.358;2023-05-02T10:34:24;6.55;;;1.48;;
44446;SDS011;30152;52.066;5.358;2023-05-02T10:36:51;9.05;;;2.03;;
44446;SDS011;30152;52.066;5.358;2023-05-02T10:39:18;9.90;;;1.95;;
44446;SDS011;30152;52.066;5.358;2023-05-02T10:41:48;7.90;;;1.88;;
44446;SDS011;30152;52.066;5.358;2023-05-02T10:44:24;5.43;;;1.77;;
44446;SDS011;30152;52.066;5.358;2023-05-02T10:47:00;10.70;;;1.88;;
44446;SDS011;30152;52.066;5.358;2023-05-02T10:49:25;10.98;;;2.00;;
44446;SDS011;30152;52.066;5.358;2023-05-02T10:51:53;9.93;;;1.70;;
44446;SDS011;30152;52.066;5.358;2023-05-02T10:54:20;8.13;;;2.03;;
44446;SDS011;30152;52.066;5.358;2023-05-02T10:59:39;6.32;;;1.50;;
44446;SDS011;30152;52.066;5.358;2023-05-02T11:05:04;14.07;;;2.25;;
44446;SDS011;30152;52.066;5.358;2023-05-02T11:07:31;5.75;;;2.00;;
44446;SDS011;30152;52.066;5.358;2023-05-02T11:12:45;9.18;;;1.73;;
44446;SDS011;30152;52.066;5.358;2023-05-02T11:15:12;6.95;;;1.83;;
44446;SDS011;30152;52.066;5.358;2023-05-02T11:18:24;6.78;;;1.80;;
44446;SDS011;30152;52.066;5.358;2023-05-02T11:20:25;6.10;;;1.50;;
44446;SDS011;30152;52.066;5.358;2023-05-02T11:22:52;7.75;;;1.90;;
44446;SDS011;30152;52.066;5.358;2023-05-02T11:25:30;6.07;;;1.95;;
44446;SDS011;30152;52.066;5.358;2023-05-02T11:27:57;13.27;;;2.58;;
44446;SDS011;30152;52.066;5.358;2023-05-02T11:30:36;12.82;;;2.00;;
44446;SDS011;30152;52.066;5.358;2023-05-02T11:35:31;8.88;;;2.45;;
44446;SDS011;30152;52.066;5.358;2023-05-02T11:38:01;9.63;;;1.80;;
44446;SDS011;30152;52.066;5.358;2023-05-02T11:40:27;10.52;;;2.67;;
44446;SDS011;30152;52.066;5.358;2023-05-02T11:42:53;10.50;;;2.33;;
44446;SDS011;30152;52.066;5.358;2023-05-02T11:45:20;8.70;;;2.28;;
44446;SDS011;30152;52.066;5.358;2023-05-02T11:47:47;7.72;;;2.10;;
44446;SDS011;30152;52.066;5.358;2023-05-02T11:50:14;7.63;;;1.80;;
44446;SDS011;30152;52.066;5.358;2023-05-02T11:52:41;7.88;;;2.20;;
44446;SDS011;30152;52.066;5.358;2023-05-02T11:55:08;6.60;;;2.05;;
44446;SDS011;30152;52.066;5.358;2023-05-02T11:57:35;10.40;;;2.33;;
44446;SDS011;30152;52.066;5.358;2023-05-02T12:00:01;10.75;;;2.42;;
44446;SDS011;30152;52.066;5.358;2023-05-02T12:02:38;10.45;;;2.35;;
44446;SDS011;30152;52.066;5.358;2023-05-02T12:05:05;11.63;;;2.25;;
44446;SDS011;30152;52.066;5.358;2023-05-02T12:07:44;10.75;;;2.63;;
44446;SDS011;30152;52.066;5.358;2023-05-02T12:10:13;8.73;;;2.20;;
44446;SDS011;30152;52.066;5.358;2023-05-02T12:12:39;14.88;;;2.20;;
44446;SDS011;30152;52.066;5.358;2023-05-02T12:15:07;8.07;;;2.03;;
44446;SDS011;30152;52.066;5.358;2023-05-02T12:17:41;9.07;;;2.25;;
44446;SDS011;30152;52.066;5.358;2023-05-02T12:20:10;7.43;;;2.55;;
44446;SDS011;30152;52.066;5.358;2023-05-02T12:22:37;9.93;;;2.47;;
44446;SDS011;30152;52.066;5.358;2023-05-02T12:25:05;9.90;;;3.15;;
44446;SDS011;30152;52.066;5.358;2023-05-02T12:27:31;8.00;;;2.13;;
44446;SDS011;30152;52.066;5.358;2023-05-02T12:29:58;9.68;;;2.20;;
44446;SDS011;30152;52.066;5.358;2023-05-02T12:32:28;8.73;;;2.70;;
44446;SDS011;30152;52.066;5.358;2023-05-02T12:34:54;11.40;;;2.95;;
44446;SDS011;30152;52.066;5.358;2023-05-02T12:37:21;8.45;;;2.10;;
44446;SDS011;30152;52.066;5.358;2023-05-02T12:39:48;8.15;;;2.30;;
44446;SDS011;30152;52.066;5.358;2023-05-02T12:42:14;9.88;;;2.20;;
44446;SDS011;30152;52.066;5.358;2023-05-02T12:44:42;8.48;;;2.13;;
44446;SDS011;30152;52.066;5.358;2023-05-02T12:47:10;7.15;;;2.25;;
44446;SDS011;30152;52.066;5.358;2023-05-02T12:49:49;8.88;;;2.55;;
44446;SDS011;30152;52.066;5.358;2023-05-02T12:52:20;12.33;;;2.60;;
44446;SDS011;30152;52.066;5.358;2023-05-02T12:55:22;10.32;;;3.00;;
44446;SDS011;30152;52.066;5.358;2023-05-02T12:57:49;10.77;;;2.35;;
44446;SDS011;30152;52.066;5.358;2023-05-02T13:00:18;8.95;;;2.42;;
44446;SDS011;30152;52.066;5.358;2023-05-02T13:02:43;7.90;;;2.90;;
44446;SDS011;30152;52.066;5.358;2023-05-02T13:05:12;10.85;;;2.10;;
44446;SDS011;30152;52.066;5.358;2023-05-02T13:07:39;9.00;;;2.45;;
44446;SDS011;30152;52.066;5.358;2023-05-02T13:10:05;14.55;;;2.45;;
44446;SDS011;30152;52.066;5.358;2023-05-02T13:12:31;7.82;;;2.95;;
44446;SDS011;30152;52.066;5.358;2023-05-02T13:14:56;8.20;;;2.25;;
44446;SDS011;30152;52.066;5.358;2023-05-02T13:17:22;11.50;;;2.80;;
44446;SDS011;30152;52.066;5.358;2023-05-02T13:19:48;10.10;;;2.50;;
44446;SDS011;30152;52.066;5.358;2023-05-02T13:22:14;9.35;;;2.28;;
44446;SDS011;30152;52.066;5.358;2023-05-02T13:24:39;14.57;;;2.28;;
44446;SDS011;30152;52.066;5.358;2023-05-02T13:27:05;7.25;;;2.28;;
44446;SDS011;30152;52.066;5.358;2023-05-02T13:29:31;12.00;;;2.55;;
44446;SDS011;30152;52.066;5.358;2023-05-02T13:31:56;7.93;;;1.90;;
44446;SDS011;30152;52.066;5.358;2023-05-02T13:34:22;10.45;;;2.40;;
44446;SDS011;30152;52.066;5.358;2023-05-02T13:36:47;12.85;;;1.98;;
44446;SDS011;30152;52.066;5.358;2023-05-02T13:39:13;15.23;;;2.60;;
44446;SDS011;30152;52.066;5.358;2023-05-02T13:41:39;11.85;;;1.77;;
44446;SDS011;30152;52.066;5.358;2023-05-02T13:44:05;7.75;;;1.92;;
44446;SDS011;30152;52.066;5.358;2023-05-02T13:46:31;8.68;;;2.22;;
44446;SDS011;30152;52.066;5.358;2023-05-02T13:49:00;8.82;;;2.00;;
44446;SDS011;30152;52.066;5.358;2023-05-02T13:51:27;14.50;;;2.30;;
44446;SDS011;30152;52.066;5.358;2023-05-02T13:53:55;13.05;;;2.22;;
44446;SDS011;30152;52.066;5.358;2023-05-02T13:56:21;9.38;;;1.98;;
44446;SDS011;30152;52.066;5.358;2023-05-02T13:58:46;6.38;;;1.90;;
44446;SDS011;30152;52.066;5.358;2023-05-02T14:01:12;8.95;;;2.53;;
44446;SDS011;30152;52.066;5.358;2023-05-02T14:03:38;8.30;;;1.90;;
44446;SDS011;30152;52.066;5.358;2023-05-02T14:06:03;6.70;;;1.83;;
44446;SDS011;30152;52.066;5.358;2023-05-02T14:08:29;8.13;;;1.98;;
44446;SDS011;30152;52.066;5.358;2023-05-02T14:10:55;6.97;;;1.85;;
44446;SDS011;30152;52.066;5.358;2023-05-02T14:13:21;10.68;;;2.20;;
44446;SDS011;30152;52.066;5.358;2023-05-02T14:15:48;5.05;;;1.90;;
44446;SDS011;30152;52.066;5.358;2023-05-02T14:18:14;7.45;;;1.77;;
44446;SDS011;30152;52.066;5.358;2023-05-02T14:20:40;7.70;;;1.67;;
44446;SDS011;30152;52.066;5.358;2023-05-02T14:23:06;9.40;;;2.13;;
44446;SDS011;30152;52.066;5.358;2023-05-02T14:25:32;9.40;;;1.83;;
44446;SDS011;30152;52.066;5.358;2023-05-02T14:27:57;7.07;;;1.70;;
44446;SDS011;30152;52.066;5.358;2023-05-02T14:30:24;7.65;;;2.50;;
44446;SDS011;30152;52.066;5.358;2023-05-02T14:32:50;7.63;;;1.85;;
44446;SDS011;30152;52.066;5.358;2023-05-02T14:35:16;7.53;;;1.67;;
44446;SDS011;30152;52.066;5.358;2023-05-02T14:37:41;6.65;;;1.48;;
44446;SDS011;30152;52.066;5.358;2023-05-02T14:40:09;7.75;;;1.83;;
44446;SDS011;30152;52.066;5.358;2023-05-02T14:42:35;7.60;;;1.50;;
44446;SDS011;30152;52.066;5.358;2023-05-02T14:45:00;7.85;;;1.90;;
44446;SDS011;30152;52.066;5.358;2023-05-02T14:47:27;13.25;;;2.28;;
44446;SDS011;30152;52.066;5.358;2023-05-02T14:49:55;4.35;;;1.63;;
44446;SDS011;30152;52.066;5.358;2023-05-02T14:52:20;8.00;;;1.70;;
44446;SDS011;30152;52.066;5.358;2023-05-02T14:54:46;6.65;;;1.77;;
44446;SDS011;30152;52.066;5.358;2023-05-02T14:57:12;8.70;;;1.95;;
44446;SDS011;30152;52.066;5.358;2023-05-02T14:59:39;9.25;;;1.70;;
44446;SDS011;30152;52.066;5.358;2023-05-02T15:02:05;6.70;;;1.45;;
44446;SDS011;30152;52.066;5.358;2023-05-02T15:04:31;11.07;;;1.63;;
44446;SDS011;30152;52.066;5.358;2023-05-02T15:06:58;6.88;;;1.75;;
44446;SDS011;30152;52.066;5.358;2023-05-02T15:09:24;5.57;;;1.50;;
44446;SDS011;30152;52.066;5.358;2023-05-02T15:11:50;8.00;;;1.45;;
44446;SDS011;30152;52.066;5.358;2023-05-02T15:14:17;7.78;;;1.40;;
44446;SDS011;30152;52.066;5.358;2023-05-02T15:16:42;9.38;;;1.50;;
44446;SDS011;30152;52.066;5.358;2023-05-02T15:19:08;11.38;;;1.48;;
44446;SDS011;30152;52.066;5.358;2023-05-02T15:21:34;6.03;;;1.55;;
44446;SDS011;30152;52.066;5.358;2023-05-02T15:24:00;5.93;;;1.50;;
44446;SDS011;30152;52.066;5.358;2023-05-02T15:26:26;5.32;;;1.20;;
44446;SDS011;30152;52.066;5.358;2023-05-02T15:28:52;6.90;;;1.48;;
44446;SDS011;30152;52.066;5.358;2023-05-02T15:31:18;7.97;;;1.48;;
44446;SDS011;30152;52.066;5.358;2023-05-02T15:33:44;7.47;;;1.45;;
44446;SDS011;30152;52.066;5.358;2023-05-02T15:36:10;3.38;;;1.20;;
44446;SDS011;30152;52.066;5.358;2023-05-02T15:38:36;4.63;;;1.13;;
44446;SDS011;30152;52.066;5.358;2023-05-02T15:41:03;6.43;;;1.52;;
44446;SDS011;30152;52.066;5.358;2023-05-02T15:43:30;4.60;;;1.17;;
44446;SDS011;30152;52.066;5.358;2023-05-02T15:45:57;8.25;;;1.30;;
44446;SDS011;30152;52.066;5.358;2023-05-02T15:48:27;6.50;;;1.50;;
44446;SDS011;30152;52.066;5.358;2023-05-02T15:50:57;6.72;;;1.27;;
44446;SDS011;30152;52.066;5.358;2023-05-02T15:53:23;5.90;;;1.15;;
44446;SDS011;30152;52.066;5.358;2023-05-02T15:55:49;8.23;;;1.50;;
44446;SDS011;30152;52.066;5.358;2023-05-02T15:58:15;8.13;;;1.40;;
44446;SDS011;30152;52.066;5.358;2023-05-02T16:00:42;4.47;;;1.10;;
44446;SDS011;30152;52.066;5.358;2023-05-02T16:03:08;5.75;;;1.25;;
44446;SDS011;30152;52.066;5.358;2023-05-02T16:05:34;8.82;;;1.48;;
44446;SDS011;30152;52.066;5.358;2023-05-02T16:08:00;5.35;;;1.38;;
44446;SDS011;30152;52.066;5.358;2023-05-02T16:10:26;7.00;;;1.55;;
44446;SDS011;30152;52.066;5.358;2023-05-02T16:12:52;10.95;;;1.50;;
44446;SDS011;30152;52.066;5.358;2023-05-02T16:15:21;13.65;;;2.13;;
44446;SDS011;30152;52.066;5.358;2023-05-02T16:17:47;10.38;;;2.17;;
44446;SDS011;30152;52.066;5.358;2023-05-02T16:20:13;5.72;;;1.40;;
44446;SDS011;30152;52.066;5.358;2023-05-02T16:22:42;4.07;;;1.13;;
44446;SDS011;30152;52.066;5.358;2023-05-02T16:25:09;7.38;;;1.55;;
44446;SDS011;30152;52.066;5.358;2023-05-02T16:27:35;6.75;;;2.17;;
44446;SDS011;30152;52.066;5.358;2023-05-02T16:30:01;4.78;;;1.45;;
44446;SDS011;30152;52.066;5.358;2023-05-02T16:32:27;6.65;;;1.50;;
44446;SDS011;30152;52.066;5.358;2023-05-02T16:34:53;7.45;;;1.85;;
44446;SDS011;30152;52.066;5.358;2023-05-02T16:37:19;4.28;;;1.30;;
44446;SDS011;30152;52.066;5.358;2023-05-02T16:39:45;7.95;;;1.80;;
44446;SDS011;30152;52.066;5.358;2023-05-02T16:42:10;6.72;;;1.35;;
44446;SDS011;30152;52.066;5.358;2023-05-02T16:44:36;7.05;;;1.45;;
44446;SDS011;30152;52.066;5.358;2023-05-02T16:47:02;4.57;;;1.20;;
44446;SDS011;30152;52.066;5.358;2023-05-02T16:49:27;5.50;;;1.35;;
44446;SDS011;30152;52.066;5.358;2023-05-02T16:51:53;7.07;;;1.50;;
44446;SDS011;30152;52.066;5.358;2023-05-02T16:54:20;5.65;;;1.35;;
44446;SDS011;30152;52.066;5.358;2023-05-02T16:56:45;6.68;;;1.40;;
44446;SDS011;30152;52.066;5.358;2023-05-02T16:59:12;8.60;;;1.67;;
44446;SDS011;30152;52.066;5.358;2023-05-02T17:01:38;5.93;;;1.17;;
44446;SDS011;30152;52.066;5.358;2023-05-02T17:04:03;7.47;;;1.60;;
44446;SDS011;30152;52.066;5.358;2023-05-02T17:06:29;6.82;;;1.40;;
44446;SDS011;30152;52.066;5.358;2023-05-02T17:08:55;5.35;;;1.15;;
44446;SDS011;30152;52.066;5.358;2023-05-02T17:11:21;6.75;;;1.20;;
44446;SDS011;30152;52.066;5.358;2023-05-02T17:13:49;3.50;;;1.10;;
44446;SDS011;30152;52.066;5.358;2023-05-02T17:16:16;4.97;;;1.15;;
44446;SDS011;30152;52.066;5.358;2023-05-02T17:18:44;12.63;;;1.85;;
44446;SDS011;30152;52.066;5.358;2023-05-02T17:21:10;3.20;;;0.95;;
44446;SDS011;30152;52.066;5.358;2023-05-02T17:23:36;6.20;;;1.20;;
44446;SDS011;30152;52.066;5.358;2023-05-02T17:26:02;6.97;;;1.30;;
44446;SDS011;30152;52.066;5.358;2023-05-02T17:28:29;5.32;;;1.27;;
44446;SDS011;30152;52.066;5.358;2023-05-02T17:30:55;8.95;;;1.40;;
44446;SDS011;30152;52.066;5.358;2023-05-02T17:33:23;5.70;;;1.65;;
44446;SDS011;30152;52.066;5.358;2023-05-02T17:35:51;4.93;;;1.00;;
44446;SDS011;30152;52.066;5.358;2023-05-02T17:38:18;6.80;;;1.10;;
44446;SDS011;30152;52.066;5.358;2023-05-02T17:40:43;3.53;;;1.08;;
44446;SDS011;30152;52.066;5.358;2023-05-02T17:43:09;6.93;;;1.50;;
44446;SDS011;30152;52.066;5.358;2023-05-02T17:45:35;8.80;;;2.60;;
44446;SDS011;30152;52.066;5.358;2023-05-02T17:48:03;6.15;;;1.55;;
44446;SDS011;30152;52.066;5.358;2023-05-02T17:50:30;5.18;;;1.10;;
44446;SDS011;30152;52.066;5.358;2023-05-02T17:53:00;4.88;;;1.40;;
44446;SDS011;30152;52.066;5.358;2023-05-02T17:55:26;6.82;;;1.13;;
44446;SDS011;30152;52.066;5.358;2023-05-02T17:57:52;6.93;;;1.48;;
44446;SDS011;30152;52.066;5.358;2023-05-02T18:00:18;4.65;;;1.33;;
44446;SDS011;30152;52.066;5.358;2023-05-02T18:02:44;5.70;;;1.13;;
44446;SDS011;30152;52.066;5.358;2023-05-02T18:05:10;9.95;;;1.48;;
44446;SDS011;30152;52.066;5.358;2023-05-02T18:07:36;7.78;;;1.38;;
44446;SDS011;30152;52.066;5.358;2023-05-02T18:10:02;3.67;;;1.25;;
44446;SDS011;30152;52.066;5.358;2023-05-02T18:12:28;5.13;;;1.27;;
44446;SDS011;30152;52.066;5.358;2023-05-02T18:14:56;5.43;;;1.38;;
44446;SDS011;30152;52.066;5.358;2023-05-02T18:17:22;3.45;;;1.02;;
44446;SDS011;30152;52.066;5.358;2023-05-02T18:19:48;5.88;;;1.30;;
44446;SDS011;30152;52.066;5.358;2023-05-02T18:22:14;6.85;;;1.40;;
44446;SDS011;30152;52.066;5.358;2023-05-02T18:24:41;3.72;;;1.00;;
44446;SDS011;30152;52.066;5.358;2023-05-02T18:27:07;5.57;;;1.10;;
44446;SDS011;30152;52.066;5.358;2023-05-02T18:29:34;6.22;;;1.88;;
44446;SDS011;30152;52.066;5.358;2023-05-02T18:32:00;17.80;;;2.42;;
44446;SDS011;30152;52.066;5.358;2023-05-02T18:34:29;14.10;;;1.75;;
44446;SDS011;30152;52.066;5.358;2023-05-02T18:36:57;5.97;;;1.20;;
44446;SDS011;30152;52.066;5.358;2023-05-02T18:39:26;8.80;;;1.60;;
44446;SDS011;30152;52.066;5.358;2023-05-02T18:41:55;4.28;;;0.90;;
44446;SDS011;30152;52.066;5.358;2023-05-02T18:44:22;4.30;;;1.05;;
44446;SDS011;30152;52.066;5.358;2023-05-02T18:46:47;4.78;;;1.00;;
44446;SDS011;30152;52.066;5.358;2023-05-02T18:49:13;6.43;;;1.33;;
44446;SDS011;30152;52.066;5.358;2023-05-02T18:51:39;6.72;;;0.98;;
44446;SDS011;30152;52.066;5.358;2023-05-02T18:54:05;4.32;;;0.85;;
44446;SDS011;30152;52.066;5.358;2023-05-02T18:56:31;5.63;;;0.75;;
44446;SDS011;30152;52.066;5.358;2023-05-02T18:58:57;6.07;;;1.23;;
44446;SDS011;30152;52.066;5.358;2023-05-02T19:01:23;4.22;;;1.40;;
44446;SDS011;30152;52.066;5.358;2023-05-02T19:03:50;3.83;;;0.90;;
44446;SDS011;30152;52.066;5.358;2023-05-02T19:06:16;4.25;;;0.93;;
44446;SDS011;30152;52.066;5.358;2023-05-02T19:08:46;4.30;;;1.23;;
44446;SDS011;30152;52.066;5.358;2023-05-02T19:11:12;5.47;;;0.93;;
44446;SDS011;30152;52.066;5.358;2023-05-02T19:13:38;4.45;;;0.80;;
44446;SDS011;30152;52.066;5.358;2023-05-02T19:16:04;6.68;;;1.10;;
44446;SDS011;30152;52.066;5.358;2023-05-02T19:18:37;4.38;;;0.93;;
44446;SDS011;30152;52.066;5.358;2023-05-02T19:21:07;4.35;;;0.95;;
44446;SDS011;30152;52.066;5.358;2023-05-02T19:23:37;3.63;;;1.17;;
44446;SDS011;30152;52.066;5.358;2023-05-02T19:26:03;3.08;;;0.93;;
44446;SDS011;30152;52.066;5.358;2023-05-02T19:28:33;6.97;;;1.40;;
44446;SDS011;30152;52.066;5.358;2023-05-02T19:30:59;7.85;;;1.38;;
44446;SDS011;30152;52.066;5.358;2023-05-02T19:33:25;3.42;;;1.08;;
44446;SDS011;30152;52.066;5.358;2023-05-02T19:35:51;5.00;;;1.00;;
44446;SDS011;30152;52.066;5.358;2023-05-02T19:38:18;5.65;;;1.85;;
44446;SDS011;30152;52.066;5.358;2023-05-02T19:40:44;7.40;;;1.48;;
44446;SDS011;30152;52.066;5.358;2023-05-02T19:43:09;7.25;;;1.00;;
44446;SDS011;30152;52.066;5.358;2023-05-02T19:45:35;6.22;;;1.10;;
44446;SDS011;30152;52.066;5.358;2023-05-02T19:48:01;6.22;;;1.02;;
44446;SDS011;30152;52.066;5.358;2023-05-02T19:50:27;7.47;;;1.20;;
44446;SDS011;30152;52.066;5.358;2023-05-02T19:52:52;4.38;;;1.05;;
44446;SDS011;30152;52.066;5.358;2023-05-02T19:55:18;6.07;;;1.23;;
44446;SDS011;30152;52.066;5.358;2023-05-02T19:57:44;5.65;;;0.90;;
44446;SDS011;30152;52.066;5.358;2023-05-02T20:00:10;4.32;;;0.90;;
44446;SDS011;30152;52.066;5.358;2023-05-02T20:02:37;6.68;;;1.05;;
44446;SDS011;30152;52.066;5.358;2023-05-02T20:05:03;3.60;;;1.00;;
44446;SDS011;30152;52.066;5.358;2023-05-02T20:07:29;3.88;;;0.80;;
44446;SDS011;30152;52.066;5.358;2023-05-02T20:09:54;9.13;;;1.10;;
44446;SDS011;30152;52.066;5.358;2023-05-02T20:12:20;9.35;;;1.20;;
44446;SDS011;30152;52.066;5.358;2023-05-02T20:14:46;5.43;;;0.93;;
44446;SDS011;30152;52.066;5.358;2023-05-02T20:17:12;5.50;;;1.55;;
44446;SDS011;30152;52.066;5.358;2023-05-02T20:19:38;5.03;;;1.27;;
44446;SDS011;30152;52.066;5.358;2023-05-02T20:22:03;5.05;;;1.05;;
44446;SDS011;30152;52.066;5.358;2023-05-02T20:24:29;5.32;;;1.00;;
44446;SDS011;30152;52.066;5.358;2023-05-02T20:26:55;5.25;;;1.20;;
44446;SDS011;30152;52.066;5.358;2023-05-02T20:29:21;5.28;;;1.25;;
44446;SDS011;30152;52.066;5.358;2023-05-02T20:31:47;5.50;;;1.60;;
44446;SDS011;30152;52.066;5.358;2023-05-02T20:34:13;4.40;;;1.30;;
44446;SDS011;30152;52.066;5.358;2023-05-02T20:36:39;5.35;;;1.30;;
44446;SDS011;30152;52.066;5.358;2023-05-02T20:39:05;6.22;;;1.52;;
44446;SDS011;30152;52.066;5.358;2023-05-02T20:41:32;4.18;;;1.00;;
44446;SDS011;30152;52.066;5.358;2023-05-02T20:44:00;5.20;;;1.20;;
44446;SDS011;30152;52.066;5.358;2023-05-02T20:46:27;4.90;;;1.40;;
44446;SDS011;30152;52.066;5.358;2023-05-02T20:48:53;5.72;;;0.90;;
44446;SDS011;30152;52.066;5.358;2023-05-02T20:51:19;7.43;;;1.35;;
44446;SDS011;30152;52.066;5.358;2023-05-02T20:53:45;6.25;;;1.33;;
44446;SDS011;30152;52.066;5.358;2023-05-02T20:56:12;5.18;;;1.65;;
44446;SDS011;30152;52.066;5.358;2023-05-02T20:58:38;7.22;;;1.50;;
44446;SDS011;30152;52.066;5.358;2023-05-02T21:01:05;7.15;;;1.27;;